createdAt,value
2022-12-10T00:01:52.961Z,97315.09
2022-12-10T00:04:21.910Z,97320.13
2022-12-10T00:06:50.504Z,97325.56
2022-12-10T00:09:21.337Z,97308.84
2022-12-10T00:11:50.619Z,97314.09
2022-12-10T00:14:18.451Z,97319.66
2022-12-10T00:16:46.236Z,97322.13
2022-12-10T00:19:13.933Z,97325.78
2022-12-10T00:21:45.877Z,97325.22
2022-12-10T00:24:13.725Z,97338.09
2022-12-10T00:26:42.607Z,97343.78
2022-12-10T00:29:12.907Z,97337.09
2022-12-10T00:31:41.379Z,97324.88
2022-12-10T00:34:11.968Z,97332.22
2022-12-10T00:36:45.150Z,97334.16
2022-12-10T00:39:17.252Z,97333.66
2022-12-10T00:41:47.113Z,97346.66
2022-12-10T00:44:15.759Z,97345.13
2022-12-10T00:46:43.760Z,97340.63
2022-12-10T00:49:11.811Z,97338.00
2022-12-10T00:51:41.636Z,97335.31
2022-12-10T00:54:09.758Z,97346.09
2022-12-10T00:56:37.833Z,97344.41
2022-12-10T00:59:05.677Z,97354.91
2022-12-10T01:01:39.731Z,97349.72
2022-12-10T01:04:13.197Z,97347.34
2022-12-10T01:06:46.240Z,97349.03
2022-12-10T01:09:21.992Z,97354.03
2022-12-10T01:11:52.721Z,97351.56
2022-12-10T01:14:29.548Z,97344.19
2022-12-10T01:17:01.283Z,97336.41
2022-12-10T01:19:31.409Z,97342.91
2022-12-10T01:22:03.911Z,97340.06
2022-12-10T01:24:32.607Z,97332.69
2022-12-10T01:27:00.488Z,97331.53
2022-12-10T01:29:30.600Z,97326.94
2022-12-10T01:31:59.135Z,97336.03
2022-12-10T01:34:27.253Z,97326.38
2022-12-10T01:36:58.376Z,97323.09
2022-12-10T01:39:26.389Z,97319.53
2022-12-10T01:42:00.874Z,97331.63
2022-12-10T01:44:28.378Z,97327.03
2022-12-10T01:47:01.521Z,97326.00
2022-12-10T01:49:38.337Z,97327.13
2022-12-10T01:52:12.345Z,97329.16
2022-12-10T01:54:46.136Z,97320.34
2022-12-10T01:57:28.219Z,97323.34
2022-12-10T02:00:03.093Z,97324.22
2022-12-10T02:02:50.292Z,97317.31
2022-12-10T02:05:42.111Z,97325.31
2022-12-10T02:08:15.424Z,97322.81
2022-12-10T02:11:01.094Z,97326.91
2022-12-10T02:14:05.127Z,97313.44
2022-12-10T02:16:43.642Z,97317.16
2022-12-10T02:19:18.392Z,97319.47
2022-12-10T02:21:50.611Z,97321.44
2022-12-10T02:24:30.024Z,97322.31
2022-12-10T02:27:24.971Z,97302.16
2022-12-10T02:29:55.599Z,97290.72
2022-12-10T02:32:31.561Z,97289.91
2022-12-10T02:35:10.480Z,97282.50
2022-12-10T02:37:50.874Z,97284.66
2022-12-10T02:40:28.489Z,97285.94
2022-12-10T02:42:56.708Z,97285.50
2022-12-10T02:45:30.523Z,97267.09
2022-12-10T02:48:04.575Z,97263.63
2022-12-10T02:50:40.051Z,97263.56
2022-12-10T02:53:07.843Z,97277.44
2022-12-10T02:56:08.610Z,97274.28
2022-12-10T02:58:58.009Z,97280.38
2022-12-10T03:01:58.093Z,97282.28
2022-12-10T03:05:04.842Z,97289.16
2022-12-10T03:07:46.016Z,97291.41
2022-12-10T03:10:31.581Z,97297.31
2022-12-10T03:13:03.553Z,97295.44
2022-12-10T03:15:36.338Z,97302.25
2022-12-10T03:18:07.140Z,97301.53
2022-12-10T03:20:42.489Z,97289.78
2022-12-10T03:23:17.563Z,97289.09
2022-12-10T03:25:49.184Z,97294.47
2022-12-10T03:28:22.600Z,97289.00
2022-12-10T03:30:54.180Z,97290.09
2022-12-10T03:33:22.326Z,97300.47
2022-12-10T03:35:51.823Z,97296.00
2022-12-10T03:38:20.455Z,97287.47
2022-12-10T03:40:48.225Z,97286.25
2022-12-10T03:43:15.969Z,97294.78
2022-12-10T03:45:43.548Z,97280.56
2022-12-10T03:48:11.189Z,97284.53
2022-12-10T03:50:38.769Z,97284.28
2022-12-10T03:53:06.306Z,97269.78
2022-12-10T03:55:33.978Z,97276.78
2022-12-10T03:58:01.542Z,97279.47
2022-12-10T04:00:29.104Z,97268.44
2022-12-10T04:02:56.758Z,97275.94
2022-12-10T04:05:24.435Z,97277.19
2022-12-10T04:07:52.368Z,97286.28
2022-12-10T04:10:20.152Z,97280.75
2022-12-10T04:13:07.974Z,97282.72
2022-12-10T04:15:58.652Z,97270.22
2022-12-10T04:18:26.229Z,97259.81
2022-12-10T04:21:12.345Z,97249.75
2022-12-10T04:23:59.237Z,97244.66
2022-12-10T04:26:45.896Z,97248.31
2022-12-10T04:29:14.662Z,97249.72
2022-12-10T04:31:42.238Z,97261.72
2022-12-10T04:34:09.958Z,97254.91
2022-12-10T04:36:37.819Z,97255.69
2022-12-10T04:39:05.644Z,97259.69
2022-12-10T04:41:33.261Z,97259.75
2022-12-10T04:44:00.919Z,97249.38
2022-12-10T04:46:29.222Z,97243.69
2022-12-10T04:48:56.981Z,97239.38
2022-12-10T04:51:24.571Z,97237.66
2022-12-10T04:53:52.253Z,97234.31
2022-12-10T04:56:21.079Z,97230.88
2022-12-10T04:58:48.734Z,97235.47
2022-12-10T05:01:17.109Z,97241.03
2022-12-10T05:03:45.692Z,97233.34
2022-12-10T05:06:16.336Z,97234.94
2022-12-10T05:08:44.776Z,97232.19
2022-12-10T05:11:23.265Z,97245.44
2022-12-10T05:13:50.759Z,97241.00
2022-12-10T05:16:21.380Z,97244.66
2022-12-10T05:18:50.865Z,97237.94
2022-12-10T05:21:21.855Z,97252.63
2022-12-10T05:23:52.524Z,97253.66
2022-12-10T05:26:25.717Z,97249.91
2022-12-10T05:28:56.691Z,97243.13
2022-12-10T05:31:29.747Z,97250.06
2022-12-10T05:33:59.670Z,97249.16
2022-12-10T05:36:30.908Z,97256.81
2022-12-10T05:39:00.042Z,97258.31
2022-12-10T05:41:32.142Z,97253.72
2022-12-10T05:44:00.218Z,97251.22
2022-12-10T05:46:31.921Z,97250.31
2022-12-10T05:49:02.076Z,97243.34
2022-12-10T05:51:34.008Z,97247.53
2022-12-10T05:54:05.309Z,97241.66
2022-12-10T05:56:33.206Z,97248.03
2022-12-10T05:59:03.327Z,97247.94
2022-12-10T06:01:35.323Z,97252.28
2022-12-10T06:04:06.028Z,97242.78
2022-12-10T06:06:37.234Z,97240.97
2022-12-10T06:09:07.036Z,97260.59
2022-12-10T06:11:35.004Z,97257.59
2022-12-10T06:14:03.325Z,97261.13
2022-12-10T06:16:31.136Z,97269.97
2022-12-10T06:18:59.502Z,97261.13
2022-12-10T06:21:26.978Z,97261.75
2022-12-10T06:23:54.919Z,97260.16
2022-12-10T06:26:26.311Z,97248.94
2022-12-10T06:28:54.841Z,97244.47
2022-12-10T06:31:23.934Z,97239.00
2022-12-10T06:33:53.554Z,97231.59
2022-12-10T06:36:21.720Z,97235.50
2022-12-10T06:38:49.812Z,97224.53
2022-12-10T06:41:21.747Z,97223.81
2022-12-10T06:43:50.253Z,97234.19
2022-12-10T06:46:21.420Z,97230.25
2022-12-10T06:48:49.520Z,97222.47
2022-12-10T06:51:19.016Z,97225.41
2022-12-10T06:53:47.989Z,97217.41
2022-12-10T06:56:19.658Z,97227.91
2022-12-10T06:58:47.778Z,97235.06
2022-12-10T07:01:27.184Z,97234.53
2022-12-10T07:03:57.728Z,97232.25
2022-12-10T07:06:29.116Z,97226.59
2022-12-10T07:08:56.671Z,97227.66
2022-12-10T07:11:26.507Z,97233.13
2022-12-10T07:13:54.155Z,97230.75
2022-12-10T07:16:33.570Z,97235.75
2022-12-10T07:19:03.438Z,97231.31
2022-12-10T07:21:35.418Z,97238.75
2022-12-10T07:24:11.212Z,97232.75
2022-12-10T07:26:42.186Z,97240.50
2022-12-10T07:29:17.949Z,97243.13
2022-12-10T07:31:46.298Z,97240.06
2022-12-10T07:34:13.847Z,97239.72
2022-12-10T07:36:42.241Z,97232.50
2022-12-10T07:39:17.987Z,97226.38
2022-12-10T07:41:55.977Z,97232.78
2022-12-10T07:44:27.022Z,97237.44
2022-12-10T07:46:56.245Z,97233.78
2022-12-10T07:49:24.018Z,97232.44
2022-12-10T07:51:52.057Z,97237.03
2022-12-10T07:54:21.154Z,97235.75
2022-12-10T07:56:48.749Z,97233.19
2022-12-10T07:59:16.477Z,97231.81
2022-12-10T08:01:44.237Z,97232.44
2022-12-10T08:04:11.911Z,97220.66
2022-12-10T08:06:39.415Z,97214.94
2022-12-10T08:09:08.517Z,97222.81
2022-12-10T08:11:36.149Z,97222.28
2022-12-10T08:14:03.732Z,97228.75
2022-12-10T08:16:32.314Z,97232.56
2022-12-10T08:19:02.810Z,97230.78
2022-12-10T08:21:33.440Z,97220.06
2022-12-10T08:24:01.859Z,97227.94
2022-12-10T08:26:33.179Z,97228.41
2022-12-10T08:29:02.153Z,97222.59
2022-12-10T08:31:35.765Z,97218.13
2022-12-10T08:34:05.900Z,97211.84
2022-12-10T08:36:33.527Z,97219.19
2022-12-10T08:39:01.084Z,97217.09
2022-12-10T08:41:28.938Z,97221.06
2022-12-10T08:43:56.581Z,97230.16
2022-12-10T08:46:26.042Z,97218.28
2022-12-10T08:48:53.661Z,97221.63
2022-12-10T08:51:21.921Z,97213.09
2022-12-10T08:53:49.413Z,97207.03
2022-12-10T08:56:16.960Z,97205.97
2022-12-10T08:58:44.518Z,97202.38
2022-12-10T09:01:17.388Z,97192.72
2022-12-10T09:03:46.056Z,97191.47
2022-12-10T09:06:18.765Z,97190.22
2022-12-10T09:08:47.152Z,97189.84
2022-12-10T09:11:20.574Z,97188.88
2022-12-10T09:13:48.254Z,97176.81
2022-12-10T09:16:16.133Z,97167.19
2022-12-10T09:18:44.036Z,97156.81
2022-12-10T09:21:17.405Z,97142.94
2022-12-10T09:23:45.785Z,97146.81
2022-12-10T09:26:17.368Z,97112.78
2022-12-10T09:28:46.052Z,97107.19
2022-12-10T09:31:20.155Z,97095.59
2022-12-10T09:33:51.609Z,97104.50
2022-12-10T09:36:21.147Z,97090.00
2022-12-10T09:38:50.486Z,97080.63
2022-12-10T09:41:45.520Z,97082.13
2022-12-10T09:44:33.088Z,97069.78
2022-12-10T09:47:04.850Z,97055.09
2022-12-10T09:49:47.345Z,97056.34
2022-12-10T09:52:23.819Z,97043.50
2022-12-10T09:55:11.201Z,97027.31
2022-12-10T09:57:52.686Z,97012.38
2022-12-10T10:00:30.574Z,97011.88
2022-12-10T10:03:01.645Z,96984.50
2022-12-10T10:05:34.069Z,96979.25
2022-12-10T10:08:07.697Z,97001.06
2022-12-10T10:10:39.880Z,97009.38
2022-12-10T10:13:32.667Z,97007.19
2022-12-10T10:16:30.548Z,96980.09
2022-12-10T10:19:12.837Z,96988.53
2022-12-10T10:21:44.473Z,96984.16
2022-12-10T10:24:18.742Z,96998.56
2022-12-10T10:26:47.037Z,96998.16
2022-12-10T10:29:21.161Z,97013.75
2022-12-10T10:32:22.902Z,97015.28
2022-12-10T10:34:56.948Z,96985.25
2022-12-10T10:37:36.368Z,96950.38
2022-12-10T10:40:04.605Z,96932.91
2022-12-10T10:42:41.190Z,96918.38
2022-12-10T10:45:43.611Z,96904.94
2022-12-10T10:48:18.290Z,96899.69
2022-12-10T10:51:05.684Z,96900.94
2022-12-10T10:53:46.278Z,96889.94
2022-12-10T10:56:37.960Z,96897.06
2022-12-10T10:59:18.644Z,96901.81
2022-12-10T11:01:56.021Z,96896.81
2022-12-10T11:04:49.647Z,96904.50
2022-12-10T11:07:35.725Z,96904.91
2022-12-10T11:10:21.081Z,96902.63
2022-12-10T11:13:23.497Z,96900.25
2022-12-10T11:16:13.333Z,96906.16
2022-12-10T11:18:52.292Z,96902.75
2022-12-10T11:21:25.991Z,96886.72
2022-12-10T11:23:56.926Z,96886.91
2022-12-10T11:27:05.988Z,96872.84
2022-12-10T11:29:41.612Z,96856.47
2022-12-10T11:32:26.932Z,96834.09
2022-12-10T11:35:14.946Z,96828.84
2022-12-10T11:38:16.946Z,96830.81
2022-12-10T11:41:08.449Z,96825.47
2022-12-10T11:44:11.039Z,96825.97
2022-12-10T11:47:06.412Z,96812.03
2022-12-10T11:49:58.428Z,96805.50
2022-12-10T11:53:00.457Z,96785.44
2022-12-10T11:55:48.549Z,96783.09
2022-12-10T11:58:59.782Z,96796.06
2022-12-10T12:01:55.566Z,96793.16
2022-12-10T12:04:40.515Z,96767.53
2022-12-10T12:07:26.738Z,96753.28
2022-12-10T12:10:12.901Z,96752.22
2022-12-10T12:13:15.557Z,96752.50
2022-12-10T12:16:00.934Z,96744.59
2022-12-10T12:18:51.534Z,96733.22
2022-12-10T12:21:19.593Z,96733.22
2022-12-10T12:24:04.548Z,96729.56
2022-12-10T12:26:49.999Z,96725.84
2022-12-10T12:29:42.147Z,96731.84
2022-12-10T12:32:28.102Z,96714.72
2022-12-10T12:35:20.722Z,96716.00
2022-12-10T12:38:02.085Z,96706.50
2022-12-10T12:40:49.769Z,96698.84
2022-12-10T12:43:26.079Z,96694.63
2022-12-10T12:45:56.565Z,96681.69
2022-12-10T12:48:42.322Z,96685.63
2022-12-10T12:51:18.270Z,96699.63
2022-12-10T12:53:46.078Z,96699.63
2022-12-10T12:56:52.098Z,96693.28
2022-12-10T13:00:20.064Z,96686.44
2022-12-10T13:03:18.498Z,96680.59
2022-12-10T13:05:47.936Z,96679.28
2022-12-10T13:08:18.914Z,96672.69
2022-12-10T13:11:16.954Z,96665.34
2022-12-10T13:14:09.211Z,96654.78
2022-12-10T13:16:39.599Z,96657.13
2022-12-10T13:19:20.916Z,96672.69
2022-12-10T13:22:38.817Z,96677.41
2022-12-10T13:25:14.343Z,96686.66
2022-12-10T13:27:54.769Z,96676.09
2022-12-10T13:30:33.971Z,96674.25
2022-12-10T13:33:20.701Z,96654.22
2022-12-10T13:36:04.339Z,96655.78
2022-12-10T13:39:18.475Z,96651.81
2022-12-10T13:42:26.075Z,96652.28
2022-12-10T13:45:23.990Z,96645.16
2022-12-10T13:48:11.538Z,96643.06
2022-12-10T13:51:19.617Z,96635.75
2022-12-10T13:54:21.241Z,96639.09
2022-12-10T13:57:23.319Z,96640.66
2022-12-10T14:00:23.506Z,96645.94
2022-12-10T14:03:15.806Z,96641.22
2022-12-10T14:05:58.327Z,96633.38
2022-12-10T14:08:34.302Z,96634.94
2022-12-10T14:11:18.428Z,96635.69
2022-12-10T14:13:53.912Z,96638.81
2022-12-10T14:16:24.875Z,96634.06
2022-12-10T14:19:05.261Z,96627.75
2022-12-10T14:21:37.419Z,96622.19
2022-12-10T14:24:06.217Z,96634.56
2022-12-10T14:26:37.881Z,96642.19
2022-12-10T14:29:08.518Z,96643.50
2022-12-10T14:31:45.025Z,96634.53
2022-12-10T14:34:19.201Z,96634.28
2022-12-10T14:36:51.481Z,96631.34
2022-12-10T14:39:29.332Z,96628.47
2022-12-10T14:42:03.469Z,96619.75
2022-12-10T14:44:35.505Z,96607.16
2022-12-10T14:47:18.451Z,96605.56
2022-12-10T14:49:54.533Z,96610.28
2022-12-10T14:52:36.284Z,96615.78
2022-12-10T14:55:05.595Z,96607.59
2022-12-10T14:57:41.978Z,96605.75
2022-12-10T15:00:20.610Z,96598.63
2022-12-10T15:03:12.554Z,96602.81
2022-12-10T15:05:40.184Z,96600.72
2022-12-10T15:08:16.884Z,96596.66
2022-12-10T15:10:51.077Z,96599.50
2022-12-10T15:13:25.502Z,96598.44
2022-12-10T15:15:54.700Z,96598.19
2022-12-10T15:18:38.448Z,96595.56
2022-12-10T15:21:08.658Z,96586.34
2022-12-10T15:23:37.366Z,96589.16
2022-12-10T15:26:21.650Z,96589.66
2022-12-10T15:28:52.086Z,96577.53
2022-12-10T15:31:32.511Z,96576.97
2022-12-10T15:34:08.884Z,96569.84
2022-12-10T15:36:42.254Z,96563.03
2022-12-10T15:39:12.585Z,96556.47
2022-12-10T15:41:56.227Z,96573.97
2022-12-10T15:44:43.467Z,96576.59
2022-12-10T15:47:24.609Z,96577.44
2022-12-10T15:49:56.777Z,96574.66
2022-12-10T15:52:31.401Z,96568.94
2022-12-10T15:55:00.043Z,96572.91
2022-12-10T15:57:40.492Z,96572.06
2022-12-10T16:00:26.215Z,96575.25
2022-12-10T16:03:06.431Z,96570.59
2022-12-10T16:05:39.701Z,96564.25
2022-12-10T16:08:29.849Z,96563.72
2022-12-10T16:11:03.907Z,96563.94
2022-12-10T16:13:42.030Z,96561.34
2022-12-10T16:16:11.516Z,96559.47
2022-12-10T16:18:39.102Z,96557.38
2022-12-10T16:21:09.498Z,96558.44
2022-12-10T16:23:39.473Z,96550.03
2022-12-10T16:26:24.918Z,96547.56
2022-12-10T16:28:53.168Z,96537.03
2022-12-10T16:31:22.474Z,96534.94
2022-12-10T16:33:52.757Z,96544.22
2022-12-10T16:36:20.661Z,96537.69
2022-12-10T16:38:48.458Z,96537.91
2022-12-10T16:41:23.295Z,96543.97
2022-12-10T16:43:51.698Z,96537.41
2022-12-10T16:46:19.468Z,96525.34
2022-12-10T16:48:47.317Z,96529.53
2022-12-10T16:51:22.279Z,96517.16
2022-12-10T16:53:49.922Z,96515.81
2022-12-10T16:56:17.873Z,96516.84
2022-12-10T16:58:46.553Z,96516.84
2022-12-10T17:01:22.345Z,96510.00
2022-12-10T17:03:51.782Z,96508.13
2022-12-10T17:06:20.350Z,96515.47
2022-12-10T17:08:48.445Z,96508.06
2022-12-10T17:11:41.759Z,96509.06
2022-12-10T17:14:21.619Z,96514.50
2022-12-10T17:16:50.370Z,96511.19
2022-12-10T17:19:18.253Z,96518.91
2022-12-10T17:21:46.609Z,96525.94
2022-12-10T17:24:14.239Z,96527.13
2022-12-10T17:26:48.944Z,96516.13
2022-12-10T17:29:28.910Z,96533.19
2022-12-10T17:31:56.584Z,96520.47
2022-12-10T17:34:24.903Z,96529.75
2022-12-10T17:36:52.993Z,96520.06
2022-12-10T17:39:25.790Z,96521.25
2022-12-10T17:41:53.841Z,96524.81
2022-12-10T17:44:23.040Z,96531.78
2022-12-10T17:46:50.840Z,96531.13
2022-12-10T17:49:18.547Z,96522.41
2022-12-10T17:51:46.343Z,96516.97
2022-12-10T17:54:14.603Z,96516.22
2022-12-10T17:56:43.043Z,96517.47
2022-12-10T17:59:15.160Z,96506.31
2022-12-10T18:01:48.103Z,96516.69
2022-12-10T18:04:16.442Z,96514.53
2022-12-10T18:06:44.022Z,96505.03
2022-12-10T18:09:13.140Z,96508.66
2022-12-10T18:11:44.255Z,96498.66
2022-12-10T18:14:15.242Z,96494.38
2022-12-10T18:16:44.310Z,96488.94
2022-12-10T18:19:15.902Z,96483.06
2022-12-10T18:21:44.525Z,96485.31
2022-12-10T18:24:13.408Z,96477.84
2022-12-10T18:26:44.642Z,96479.47
2022-12-10T18:29:15.850Z,96470.97
2022-12-10T18:31:45.004Z,96470.03
2022-12-10T18:34:16.062Z,96469.38
2022-12-10T18:36:47.777Z,96464.72
2022-12-10T18:39:22.821Z,96463.22
2022-12-10T18:41:52.300Z,96453.03
2022-12-10T18:44:25.080Z,96457.78
2022-12-10T18:46:56.517Z,96453.03
2022-12-10T18:49:25.562Z,96450.75
2022-12-10T18:51:53.161Z,96452.69
2022-12-10T18:54:20.936Z,96439.75
2022-12-10T18:57:32.362Z,96436.31
2022-12-10T18:59:36.149Z,96435.19
2022-12-10T19:02:04.050Z,96425.53
2022-12-10T19:04:31.635Z,96425.75
2022-12-10T19:06:59.560Z,96429.72
2022-12-10T19:09:32.331Z,96422.78
2022-12-10T19:12:00.481Z,96421.63
2022-12-10T19:14:28.073Z,96412.91
2022-12-10T19:16:55.644Z,96405.50
2022-12-10T19:19:23.150Z,96407.41
2022-12-10T19:21:50.743Z,96400.41
2022-12-10T19:24:18.537Z,96411.84
2022-12-10T19:26:47.474Z,96396.63
2022-12-10T19:29:19.634Z,96400.06
2022-12-10T19:31:48.954Z,96392.91
2022-12-10T19:34:19.503Z,96391.53
2022-12-10T19:36:52.470Z,96394.00
2022-12-10T19:39:26.047Z,96391.63
2022-12-10T19:41:55.391Z,96395.13
2022-12-10T19:44:23.161Z,96398.16
2022-12-10T19:46:51.537Z,96386.47
2022-12-10T19:49:19.914Z,96394.72
2022-12-10T19:51:47.731Z,96391.81
2022-12-10T19:54:15.677Z,96393.72
2022-12-10T19:56:44.233Z,96381.22
2022-12-10T19:59:18.443Z,96376.09
2022-12-10T20:01:47.146Z,96367.59
2022-12-10T20:04:17.551Z,96362.09
2022-12-10T20:06:49.011Z,96362.59
2022-12-10T20:09:28.720Z,96357.19
2022-12-10T20:11:57.062Z,96364.13
2022-12-10T20:14:25.120Z,96376.84
2022-12-10T20:16:53.809Z,96370.50
2022-12-10T20:19:24.688Z,96374.69
2022-12-10T20:21:53.272Z,96375.78
2022-12-10T20:24:20.998Z,96379.59
2022-12-10T20:26:50.022Z,96382.25
2022-12-10T20:29:22.783Z,96388.63
2022-12-10T20:31:54.747Z,96391.72
2022-12-10T20:34:24.926Z,96375.00
2022-12-10T20:36:53.255Z,96372.91
2022-12-10T20:39:26.150Z,96365.53
2022-12-10T20:41:55.516Z,96371.59
2022-12-10T20:44:24.400Z,96357.66
2022-12-10T20:46:54.285Z,96362.69
2022-12-10T20:49:24.792Z,96357.00
2022-12-10T20:51:52.631Z,96371.72
2022-12-10T20:54:20.437Z,96362.91
2022-12-10T20:56:48.088Z,96349.59
2022-12-10T20:59:17.533Z,96361.78
2022-12-10T21:01:45.428Z,96353.63
2022-12-10T21:04:13.342Z,96347.25
2022-12-10T21:06:43.991Z,96348.69
2022-12-10T21:09:13.847Z,96342.31
2022-12-10T21:11:41.405Z,96344.34
2022-12-10T21:14:18.417Z,96342.72
2022-12-10T21:16:58.620Z,96333.19
2022-12-10T21:19:27.880Z,96329.81
2022-12-10T21:21:56.096Z,96318.09
2022-12-10T21:24:23.653Z,96328.72
2022-12-10T21:26:51.181Z,96318.59
2022-12-10T21:29:18.895Z,96314.47
2022-12-10T21:31:46.919Z,96318.28
2022-12-10T21:34:14.468Z,96321.69
2022-12-10T21:36:42.099Z,96323.94
2022-12-10T21:39:09.739Z,96328.16
2022-12-10T21:41:56.151Z,96343.53
2022-12-10T21:44:23.749Z,96334.00
2022-12-10T21:46:51.486Z,96342.19
2022-12-10T21:49:19.226Z,96357.16
2022-12-10T21:51:46.829Z,96353.97
2022-12-10T21:54:14.337Z,96363.38
2022-12-10T21:56:41.912Z,96373.56
2022-12-10T21:59:09.474Z,96356.84
2022-12-10T22:01:37.101Z,96362.63
2022-12-10T22:04:05.119Z,96360.88
2022-12-10T22:06:32.690Z,96372.00
2022-12-10T22:09:00.278Z,96376.41
2022-12-10T22:11:28.752Z,96387.56
2022-12-10T22:13:56.362Z,96395.53
2022-12-10T22:16:24.255Z,96398.31
2022-12-10T22:18:51.795Z,96411.41
2022-12-10T22:21:23.496Z,96406.44
2022-12-10T22:23:53.102Z,96423.75
2022-12-10T22:26:22.862Z,96413.34
2022-12-10T22:28:51.304Z,96406.16
2022-12-10T22:31:19.945Z,96399.59
2022-12-10T22:33:47.593Z,96396.41
2022-12-10T22:36:15.158Z,96394.75
2022-12-10T22:38:42.788Z,96394.59
2022-12-10T22:41:10.414Z,96392.97
2022-12-10T22:43:53.285Z,96388.41
2022-12-10T22:46:21.628Z,96403.31
2022-12-10T22:48:49.407Z,96407.09
2022-12-10T22:51:17.557Z,96413.63
2022-12-10T22:53:46.120Z,96414.22
2022-12-10T22:56:16.266Z,96414.22
2022-12-10T22:58:44.289Z,96435.53
2022-12-10T23:01:18.011Z,96435.13
2022-12-10T23:03:46.346Z,96444.88
2022-12-10T23:06:13.911Z,96450.19
2022-12-10T23:08:41.536Z,96445.78
2022-12-10T23:11:12.207Z,96459.50
2022-12-10T23:13:40.913Z,96471.63
2022-12-10T23:16:14.251Z,96475.97
2022-12-10T23:18:43.983Z,96469.19
2022-12-10T23:21:25.575Z,96473.13
2022-12-10T23:23:54.608Z,96470.53
2022-12-10T23:26:22.540Z,96482.00
2022-12-10T23:28:50.429Z,96475.88
2022-12-10T23:31:18.731Z,96485.41
2022-12-10T23:33:46.897Z,96498.84
2022-12-10T23:36:14.418Z,96500.47
2022-12-10T23:38:42.147Z,96499.72
2022-12-10T23:41:12.235Z,96506.78
2022-12-10T23:43:43.235Z,96498.44
2022-12-10T23:46:11.493Z,96515.78
2022-12-10T23:48:39.263Z,96515.91
2022-12-10T23:51:07.263Z,96524.44
2022-12-10T23:53:36.025Z,96520.03
2022-12-10T23:56:16.652Z,96528.78
2022-12-10T23:58:46.048Z,96533.19
